Eagle San Pedro — 9V9334 — position and weather

sailwx.info

Track history (hours):
 
Tides and Currents Weather Stations Pressure Air Temp Water Temp Dewpoint Dewpoint Depression Visibility Wind Speed Wind Dir Waves Ship Positions

Eagle San Pedro

Last reported at 2017-Dec-14 11:41 UTC. Time now 2017-Dec-18 20:47 UTC.
Position N 21°50' E 121°40'.

Length 274 m; draft 9 m.

Type: Tanker. MMSI: 566690000.

Date/timePositionNaut miles runAvg speedWind from/ knotsBaromVisibWave heightAir tempDewpointWater temp
2017-Dec-14 11:41N 21°50' E 121°40'13612.7
2017-Dec-14 00:59N 23°46' E 122°58'613.2
2017-Dec-14 00:30N 23°51' E 123°01'613.1
2017-Dec-14 00:01N 23°57' E 123°05'612.3
2017-Dec-13 23:30N 24°02' E 123°08'611.9
2017-Dec-13 23:01N 24°08' E 123°10'612.6
2017-Dec-13 22:30N 24°13' E 123°15'713.1
2017-Dec-13 22:01N 24°18' E 123°18'612.8
2017-Dec-13 21:31N 24°24' E 123°22'612.7
2017-Dec-13 21:01N 24°29' E 123°25'612.9
2017-Dec-13 20:31N 24°35' E 123°29'612.9
2017-Dec-13 20:00N 24°40' E 123°33'713.0
2017-Dec-13 19:31N 24°46' E 123°36'713.2
2017-Dec-13 19:00N 24°52' E 123°40'  
Track history (hours):
 
Tides and Currents Weather Stations Pressure Air Temp Water Temp Dewpoint Dewpoint Depression Visibility Wind Speed Wind Dir Waves Ship Positions

Eagle San Pedro

Last reported at 2017-Dec-14 11:41 UTC. Time now 2017-Dec-18 20:47 UTC.
Position N 21°50' E 121°40'.

Length 274 m; draft 9 m.

Type: Tanker. MMSI: 566690000.

Date/timePositionNaut miles runAvg speedWind from/ knotsBaromVisibWave heightAir tempDewpointWater temp
2017-Dec-14 11:41N 21°50' E 121°40'13612.7
2017-Dec-14 00:59N 23°46' E 122°58'613.2
2017-Dec-14 00:30N 23°51' E 123°01'613.1
2017-Dec-14 00:01N 23°57' E 123°05'612.3
2017-Dec-13 23:30N 24°02' E 123°08'611.9
2017-Dec-13 23:01N 24°08' E 123°10'612.6
2017-Dec-13 22:30N 24°13' E 123°15'713.1
2017-Dec-13 22:01N 24°18' E 123°18'612.8
2017-Dec-13 21:31N 24°24' E 123°22'612.7
2017-Dec-13 21:01N 24°29' E 123°25'612.9
2017-Dec-13 20:31N 24°35' E 123°29'612.9
2017-Dec-13 20:00N 24°40' E 123°33'713.0
2017-Dec-13 19:31N 24°46' E 123°36'713.2
2017-Dec-13 19:00N 24°52' E 123°40'  

Dump ship's entire track history